createdAt,value
2022-12-29T00:00:24.881Z,-0.50
2022-12-29T00:02:52.691Z,-0.40
2022-12-29T00:05:20.513Z,-0.50
2022-12-29T00:07:48.167Z,-0.60
2022-12-29T00:10:15.733Z,-0.50
2022-12-29T00:13:01.840Z,-0.50
2022-12-29T00:15:38.182Z,-0.60
2022-12-29T00:18:07.135Z,-0.80
2022-12-29T00:20:55.373Z,-0.80
2022-12-29T00:23:41.591Z,-1.00
2022-12-29T00:26:36.320Z,-0.90
2022-12-29T00:29:22.937Z,-1.00
2022-12-29T00:32:09.029Z,-0.90
2022-12-29T00:34:55.356Z,-0.80
2022-12-29T00:37:43.105Z,-0.60
2022-12-29T00:40:29.365Z,-0.70
2022-12-29T00:43:26.172Z,-0.70
2022-12-29T00:45:53.770Z,-0.60
2022-12-29T00:48:41.499Z,-0.70
2022-12-29T00:51:09.576Z,-0.80
2022-12-29T00:53:37.146Z,-0.80
2022-12-29T00:56:05.085Z,-0.70
2022-12-29T00:58:32.947Z,-0.80
2022-12-29T01:01:08.588Z,-0.80
2022-12-29T01:03:37.879Z,-0.70
2022-12-29T01:06:09.556Z,-0.60
2022-12-29T01:08:39.056Z,-0.60
2022-12-29T01:11:11.870Z,-0.60
2022-12-29T01:13:42.054Z,-0.70
2022-12-29T01:16:09.734Z,-0.70
2022-12-29T01:18:37.435Z,-0.80
2022-12-29T01:21:07.135Z,-0.60
2022-12-29T01:23:34.665Z,-0.40
2022-12-29T01:26:17.260Z,-0.40
2022-12-29T01:28:46.103Z,-0.30
2022-12-29T01:31:16.146Z,-0.20
2022-12-29T01:33:44.520Z,-0.20
2022-12-29T01:36:15.788Z,-0.20
2022-12-29T01:38:45.494Z,-0.20
2022-12-29T01:41:15.325Z,-0.10
2022-12-29T01:43:54.038Z,-0.10
2022-12-29T01:46:22.359Z,-0.10
2022-12-29T01:48:52.262Z,-0.10
2022-12-29T01:51:22.173Z,-0.20
2022-12-29T01:53:51.550Z,-0.20
2022-12-29T01:56:22.041Z,0.00
2022-12-29T01:58:56.948Z,0.00
2022-12-29T02:01:24.670Z,0.00
2022-12-29T02:03:52.866Z,0.00
2022-12-29T02:06:47.386Z,0.10
2022-12-29T02:09:16.224Z,0.10
2022-12-29T02:11:46.520Z,0.10
2022-12-29T02:14:15.331Z,0.20
2022-12-29T02:17:14.908Z,0.20
2022-12-29T02:19:54.809Z,0.20
2022-12-29T02:23:02.905Z,0.20
2022-12-29T02:26:14.935Z,0.10
2022-12-29T02:29:03.785Z,0.10
2022-12-29T02:31:59.016Z,0.20
2022-12-29T02:35:08.795Z,0.10
2022-12-29T02:37:52.575Z,0.00
2022-12-29T02:40:29.362Z,0.00
2022-12-29T02:42:59.980Z,0.00
2022-12-29T02:45:54.953Z,-0.10
2022-12-29T02:48:40.091Z,-0.30
2022-12-29T02:51:24.129Z,-0.30
2022-12-29T02:54:12.449Z,-0.50
2022-12-29T02:56:40.183Z,-0.50
2022-12-29T02:59:08.664Z,-0.50
2022-12-29T03:01:39.376Z,-0.50
2022-12-29T03:04:32.834Z,-0.60
2022-12-29T03:07:18.630Z,-0.50
2022-12-29T03:10:02.856Z,-0.50
2022-12-29T03:12:54.487Z,-0.80
2022-12-29T03:15:48.705Z,-1.00
2022-12-29T03:18:23.413Z,-1.00
2022-12-29T03:21:12.275Z,-1.10
2022-12-29T03:23:42.895Z,-1.00
2022-12-29T03:26:14.068Z,-1.00
2022-12-29T03:28:52.506Z,-1.10
2022-12-29T03:31:24.845Z,-1.00
2022-12-29T03:33:56.525Z,-0.90
2022-12-29T03:36:31.611Z,-1.00
2022-12-29T03:39:13.009Z,-0.90
2022-12-29T03:41:45.749Z,-1.00
2022-12-29T03:44:14.729Z,-1.00
2022-12-29T03:46:42.404Z,-1.10
2022-12-29T03:49:10.151Z,-0.90
2022-12-29T03:51:37.801Z,-0.90
2022-12-29T03:54:06.750Z,-1.00
2022-12-29T03:56:34.798Z,-1.00
2022-12-29T03:59:03.648Z,-1.20
2022-12-29T04:01:39.851Z,-1.00
2022-12-29T04:04:08.712Z,-1.10
2022-12-29T04:06:36.820Z,-1.30
2022-12-29T04:09:07.329Z,-1.20
2022-12-29T04:11:40.511Z,-1.00
2022-12-29T04:14:08.755Z,-1.10
2022-12-29T04:16:36.999Z,-1.40
2022-12-29T04:19:08.462Z,-1.40
2022-12-29T04:21:37.344Z,-1.20
2022-12-29T04:24:07.785Z,-1.40
2022-12-29T04:26:40.287Z,-1.40
2022-12-29T04:29:34.309Z,-1.20
2022-12-29T04:32:04.705Z,-1.30
2022-12-29T04:34:34.975Z,-1.30
2022-12-29T04:37:02.592Z,-1.20
2022-12-29T04:39:30.379Z,-1.00
2022-12-29T04:41:58.443Z,-1.00
2022-12-29T04:44:27.904Z,-1.00
2022-12-29T04:47:06.917Z,-0.90
2022-12-29T04:49:46.822Z,-0.80
2022-12-29T04:52:37.987Z,-0.90
2022-12-29T04:55:08.757Z,-0.80
2022-12-29T04:57:36.481Z,-1.00
2022-12-29T05:00:05.320Z,-1.10
2022-12-29T05:02:33.105Z,-1.20
2022-12-29T05:05:01.732Z,-1.10
2022-12-29T05:07:31.178Z,-1.10
2022-12-29T05:09:59.024Z,-1.00
2022-12-29T05:12:31.958Z,-0.90
2022-12-29T05:15:01.552Z,-0.90
2022-12-29T05:17:29.619Z,-0.90
2022-12-29T05:19:57.693Z,-0.90
2022-12-29T05:22:26.343Z,-0.80
2022-12-29T05:24:55.693Z,-0.80
2022-12-29T05:27:24.227Z,-0.90
2022-12-29T05:30:11.013Z,-1.20
2022-12-29T05:32:38.613Z,-1.20
2022-12-29T05:35:06.986Z,-1.30
2022-12-29T05:37:35.631Z,-1.30
2022-12-29T05:40:04.966Z,-1.10
2022-12-29T05:42:32.795Z,-1.00
2022-12-29T05:45:19.375Z,-1.00
2022-12-29T05:48:07.328Z,-1.10
2022-12-29T05:50:58.445Z,-1.00
2022-12-29T05:53:34.216Z,-0.90
2022-12-29T05:56:02.016Z,-0.90
2022-12-29T05:58:29.888Z,-0.90
2022-12-29T06:00:57.515Z,-1.00
2022-12-29T06:03:25.435Z,-1.00
2022-12-29T06:05:53.520Z,-1.10
2022-12-29T06:08:21.203Z,-1.10
2022-12-29T06:10:50.518Z,-1.10
2022-12-29T06:13:18.373Z,-1.00
2022-12-29T06:15:50.246Z,-1.10
2022-12-29T06:18:20.440Z,-1.10
2022-12-29T06:20:48.889Z,-1.20
2022-12-29T06:23:19.652Z,-1.20
2022-12-29T06:25:50.849Z,-1.10
2022-12-29T06:28:18.447Z,-1.20
2022-12-29T06:30:47.399Z,-1.10
2022-12-29T06:33:15.544Z,-1.10
2022-12-29T06:35:44.430Z,-1.10
2022-12-29T06:38:12.030Z,-1.30
2022-12-29T06:40:39.657Z,-1.30
2022-12-29T06:43:39.222Z,-1.20
2022-12-29T06:46:16.752Z,-1.30
2022-12-29T06:48:44.916Z,-1.40
2022-12-29T06:51:12.478Z,-1.30
2022-12-29T06:53:40.123Z,-1.40
2022-12-29T06:56:08.079Z,-1.40
2022-12-29T06:58:35.593Z,-1.30
2022-12-29T07:01:03.314Z,-1.20
2022-12-29T07:03:31.154Z,-1.00
2022-12-29T07:05:59.211Z,-1.00
2022-12-29T07:08:26.833Z,-1.00
2022-12-29T07:10:54.466Z,-0.90
2022-12-29T07:13:22.231Z,-1.00
2022-12-29T07:15:50.131Z,-1.10
2022-12-29T07:18:17.838Z,-1.00
2022-12-29T07:20:45.981Z,-0.90
2022-12-29T07:23:13.744Z,-0.90
2022-12-29T07:25:42.439Z,-0.90
2022-12-29T07:28:10.019Z,-0.80
2022-12-29T07:30:39.493Z,-0.80
2022-12-29T07:33:07.046Z,-0.70
2022-12-29T07:35:36.057Z,-0.60
2022-12-29T07:38:03.636Z,-0.50
2022-12-29T07:40:31.290Z,-0.60
2022-12-29T07:42:58.985Z,-0.50
2022-12-29T07:45:36.703Z,-0.50
2022-12-29T07:48:10.502Z,-0.40
2022-12-29T07:50:38.338Z,-0.40
2022-12-29T07:53:06.091Z,-0.30
2022-12-29T07:55:33.662Z,-0.40
2022-12-29T07:58:01.181Z,-0.40
2022-12-29T08:00:28.841Z,-0.30
2022-12-29T08:02:56.715Z,-0.40
2022-12-29T08:05:24.437Z,-0.50
2022-12-29T08:07:52.048Z,-0.50
2022-12-29T08:10:19.751Z,-0.30
2022-12-29T08:12:47.388Z,-0.20
2022-12-29T08:15:15.055Z,-0.10
2022-12-29T08:17:42.695Z,-0.10
2022-12-29T08:20:10.680Z,-0.10
2022-12-29T08:22:38.304Z,-0.10
2022-12-29T08:25:06.276Z,-0.20
2022-12-29T08:27:33.960Z,0.00
2022-12-29T08:30:01.791Z,0.10
2022-12-29T08:32:29.570Z,0.20
2022-12-29T08:34:57.293Z,0.10
2022-12-29T08:37:30.709Z,0.00
2022-12-29T08:39:59.804Z,0.10
2022-12-29T08:42:32.096Z,0.00
2022-12-29T08:45:00.786Z,0.10
2022-12-29T08:47:28.638Z,0.30
2022-12-29T08:49:56.307Z,0.30
2022-12-29T08:52:24.028Z,0.40
2022-12-29T08:54:51.764Z,0.50
2022-12-29T08:57:19.613Z,0.60
2022-12-29T09:00:00.930Z,0.60
2022-12-29T09:02:28.852Z,0.60
2022-12-29T09:04:58.443Z,0.60
2022-12-29T09:07:26.118Z,0.60
2022-12-29T09:09:53.767Z,0.70
2022-12-29T09:12:21.356Z,0.70
2022-12-29T09:14:49.020Z,0.80
2022-12-29T09:17:35.269Z,0.90
2022-12-29T09:20:03.231Z,0.90
2022-12-29T09:22:30.828Z,0.90
2022-12-29T09:24:58.535Z,1.00
2022-12-29T09:27:26.157Z,1.00
2022-12-29T09:29:54.577Z,0.90
2022-12-29T09:32:23.758Z,1.00
2022-12-29T09:34:52.018Z,0.90
2022-12-29T09:37:19.597Z,0.80
2022-12-29T09:39:53.944Z,0.90
2022-12-29T09:43:10.897Z,1.00
2022-12-29T09:45:45.276Z,1.00
2022-12-29T09:48:22.663Z,1.00
2022-12-29T09:50:58.927Z,1.00
2022-12-29T09:53:51.629Z,1.00
2022-12-29T09:56:23.200Z,1.00
2022-12-29T09:59:05.564Z,1.10
2022-12-29T10:01:44.863Z,1.10
2022-12-29T10:04:12.641Z,1.20
2022-12-29T10:10:02.066Z,1.30
2022-12-29T10:12:42.017Z,1.40
2022-12-29T10:15:27.514Z,1.40
2022-12-29T10:18:20.793Z,1.40
2022-12-29T10:20:51.175Z,1.40
2022-12-29T10:23:21.513Z,1.50
2022-12-29T10:25:49.599Z,1.50
2022-12-29T10:28:41.027Z,1.50
2022-12-29T10:31:34.988Z,1.40
2022-12-29T10:34:11.410Z,1.40
2022-12-29T10:36:48.409Z,1.40
2022-12-29T10:39:23.951Z,1.40
2022-12-29T10:42:16.281Z,1.50
2022-12-29T10:44:43.943Z,1.50
2022-12-29T10:47:17.590Z,1.60
2022-12-29T10:49:48.155Z,1.70
2022-12-29T10:52:18.559Z,1.80
2022-12-29T10:54:46.304Z,1.80
2022-12-29T10:57:41.778Z,1.80
2022-12-29T11:00:17.635Z,1.80
2022-12-29T11:02:59.163Z,1.80
2022-12-29T11:05:43.090Z,1.90
2022-12-29T11:08:17.539Z,2.00
2022-12-29T11:10:47.232Z,2.00
2022-12-29T11:13:20.645Z,2.00
2022-12-29T11:15:54.937Z,2.00
2022-12-29T11:18:41.161Z,2.00
2022-12-29T11:21:28.270Z,2.10
2022-12-29T11:24:18.833Z,2.20
2022-12-29T11:26:47.211Z,2.10
2022-12-29T11:29:22.204Z,2.10
2022-12-29T11:31:53.618Z,2.00
2022-12-29T11:34:24.473Z,2.20
2022-12-29T11:37:01.025Z,2.20
2022-12-29T11:39:34.774Z,2.20
2022-12-29T11:42:04.662Z,2.20
2022-12-29T11:44:38.689Z,2.20
2022-12-29T11:47:09.506Z,2.10
2022-12-29T11:49:37.556Z,2.20
2022-12-29T11:52:05.599Z,2.30
2022-12-29T11:54:37.833Z,2.30
2022-12-29T11:57:17.045Z,2.30
2022-12-29T11:59:49.653Z,2.30
2022-12-29T12:02:17.318Z,2.30
2022-12-29T12:04:45.594Z,2.30
2022-12-29T12:07:17.991Z,2.40
2022-12-29T12:09:52.083Z,2.40
2022-12-29T12:12:42.674Z,2.40
2022-12-29T12:15:18.783Z,2.40
2022-12-29T12:18:03.276Z,2.40
2022-12-29T12:20:36.818Z,2.40
2022-12-29T12:23:13.408Z,2.30
2022-12-29T12:25:49.488Z,2.30
2022-12-29T12:28:48.222Z,2.40
2022-12-29T12:31:28.996Z,2.40
2022-12-29T12:34:03.916Z,2.40
2022-12-29T12:37:00.540Z,2.40
2022-12-29T12:39:47.049Z,2.50
2022-12-29T12:42:39.805Z,2.50
2022-12-29T12:45:33.229Z,2.50
2022-12-29T12:48:20.907Z,2.60
2022-12-29T12:51:17.625Z,2.60
2022-12-29T12:53:51.205Z,2.50
2022-12-29T12:56:30.707Z,2.50
2022-12-29T12:59:35.412Z,2.60
2022-12-29T13:02:40.934Z,2.60
2022-12-29T13:05:27.491Z,2.60
2022-12-29T13:08:04.426Z,2.70
2022-12-29T13:10:36.648Z,2.60
2022-12-29T13:13:35.005Z,2.70
2022-12-29T13:16:18.819Z,2.80
2022-12-29T13:19:20.309Z,2.70
2022-12-29T13:22:26.277Z,2.70
2022-12-29T13:24:59.820Z,2.70
2022-12-29T13:27:37.754Z,2.80
2022-12-29T13:30:11.612Z,2.80
2022-12-29T13:32:39.515Z,2.80
2022-12-29T13:35:39.893Z,2.80
2022-12-29T13:38:13.870Z,2.80
2022-12-29T13:40:46.007Z,2.80
2022-12-29T13:43:16.575Z,2.70
2022-12-29T13:45:46.333Z,2.80
2022-12-29T13:48:24.623Z,2.80
2022-12-29T13:50:56.855Z,2.80
2022-12-29T13:53:44.068Z,2.80
2022-12-29T13:56:21.937Z,2.80
2022-12-29T13:59:20.461Z,2.80
2022-12-29T14:01:52.093Z,2.70
2022-12-29T14:04:26.403Z,2.60
2022-12-29T14:07:14.337Z,2.60
2022-12-29T14:09:58.537Z,2.60
2022-12-29T14:12:29.827Z,2.50
2022-12-29T14:15:25.495Z,2.50
2022-12-29T14:18:13.885Z,2.60
2022-12-29T14:20:55.498Z,2.50
2022-12-29T14:23:41.344Z,2.50
2022-12-29T14:26:09.708Z,2.40
2022-12-29T14:28:40.110Z,2.40
2022-12-29T14:31:19.971Z,2.50
2022-12-29T14:34:12.605Z,2.50
2022-12-29T14:36:42.739Z,2.50
2022-12-29T14:39:46.484Z,2.40
2022-12-29T14:42:16.411Z,2.40
2022-12-29T14:45:17.794Z,2.30
2022-12-29T14:47:51.185Z,2.30
2022-12-29T14:50:41.813Z,2.30
2022-12-29T14:53:47.240Z,2.20
2022-12-29T14:56:18.111Z,2.20
2022-12-29T14:58:53.685Z,2.10
2022-12-29T15:01:49.575Z,1.90
2022-12-29T15:04:31.902Z,2.00
2022-12-29T15:07:01.590Z,2.00
2022-12-29T15:09:37.469Z,2.00
2022-12-29T15:12:20.118Z,1.90
2022-12-29T15:14:52.658Z,1.90
2022-12-29T15:17:34.150Z,1.90
2022-12-29T15:20:23.435Z,1.70
2022-12-29T15:22:57.199Z,1.60
2022-12-29T15:25:26.459Z,1.60
2022-12-29T15:28:08.032Z,1.50
2022-12-29T15:30:35.667Z,1.30
2022-12-29T15:33:03.983Z,1.50
2022-12-29T15:35:38.276Z,1.40
2022-12-29T15:38:17.918Z,1.30
2022-12-29T15:40:46.636Z,1.40
2022-12-29T15:43:48.762Z,1.50
2022-12-29T15:46:17.023Z,1.40
2022-12-29T15:48:44.830Z,1.20
2022-12-29T15:51:20.524Z,1.20
2022-12-29T15:53:51.306Z,1.20
2022-12-29T15:56:19.711Z,1.00
2022-12-29T15:58:51.330Z,1.00
2022-12-29T16:01:25.450Z,1.10
2022-12-29T16:03:53.946Z,1.30
2022-12-29T16:06:39.475Z,1.10
2022-12-29T16:09:17.131Z,1.00
2022-12-29T16:12:07.455Z,1.00
2022-12-29T16:14:55.112Z,1.10
2022-12-29T16:17:32.556Z,0.80
2022-12-29T16:20:01.808Z,0.70
2022-12-29T16:22:42.022Z,0.60
2022-12-29T16:25:25.463Z,0.50
2022-12-29T16:27:53.869Z,0.60
2022-12-29T16:30:29.529Z,0.60
2022-12-29T16:33:04.038Z,0.60
2022-12-29T16:35:47.802Z,0.90
2022-12-29T16:38:23.548Z,1.00
2022-12-29T16:40:56.984Z,0.90
2022-12-29T16:43:27.230Z,0.30
2022-12-29T16:45:54.843Z,0.30
2022-12-29T16:48:27.133Z,0.60
2022-12-29T16:51:16.162Z,0.70
2022-12-29T16:53:55.508Z,0.60
2022-12-29T16:56:28.027Z,0.50
2022-12-29T16:59:09.542Z,0.50
2022-12-29T17:01:39.813Z,0.50
2022-12-29T17:04:10.784Z,0.40
2022-12-29T17:06:38.810Z,0.50
2022-12-29T17:09:28.925Z,0.40
2022-12-29T17:12:08.377Z,0.40
2022-12-29T17:14:43.279Z,0.40
2022-12-29T17:17:22.097Z,0.50
2022-12-29T17:19:53.155Z,0.60
2022-12-29T17:22:25.792Z,0.60
2022-12-29T17:24:55.513Z,0.60
2022-12-29T17:27:34.538Z,0.60
2022-12-29T17:30:12.064Z,0.90
2022-12-29T17:32:41.516Z,1.00
2022-12-29T17:35:17.248Z,1.20
2022-12-29T17:37:45.322Z,0.80
2022-12-29T17:40:22.117Z,0.80
2022-12-29T17:42:52.688Z,0.90
2022-12-29T17:45:29.606Z,1.00
2022-12-29T17:48:01.612Z,1.10
2022-12-29T17:50:31.638Z,1.10
2022-12-29T17:53:03.626Z,1.00
2022-12-29T17:55:37.631Z,1.10
2022-12-29T17:58:23.906Z,1.10
2022-12-29T18:00:58.191Z,1.20
2022-12-29T18:03:32.302Z,1.10
2022-12-29T18:06:00.460Z,1.00
2022-12-29T18:08:30.892Z,1.00
2022-12-29T18:10:59.388Z,1.00
2022-12-29T18:13:39.366Z,1.00
2022-12-29T18:16:12.530Z,1.10
2022-12-29T18:18:40.349Z,0.80
2022-12-29T18:21:16.700Z,0.70
2022-12-29T18:23:45.048Z,0.70
2022-12-29T18:26:28.899Z,1.00
2022-12-29T18:28:58.765Z,1.00
2022-12-29T18:31:31.754Z,0.90
2022-12-29T18:34:02.037Z,0.90
2022-12-29T18:36:29.638Z,0.90
2022-12-29T18:38:57.275Z,0.90
2022-12-29T18:41:30.136Z,0.90
2022-12-29T18:43:58.533Z,0.90
2022-12-29T18:46:27.372Z,0.70
2022-12-29T18:48:55.310Z,0.70
2022-12-29T18:51:24.928Z,0.80
2022-12-29T18:53:54.425Z,0.60
2022-12-29T18:56:24.311Z,0.50
2022-12-29T18:58:53.579Z,0.40
2022-12-29T19:01:24.513Z,0.50
2022-12-29T19:03:52.980Z,0.80
2022-12-29T19:06:21.576Z,0.60
2022-12-29T19:08:49.448Z,0.60
2022-12-29T19:11:17.932Z,0.60
2022-12-29T19:13:45.826Z,0.60
2022-12-29T19:16:19.853Z,0.50
2022-12-29T19:18:58.599Z,0.60
2022-12-29T19:21:31.858Z,0.40
2022-12-29T19:24:00.432Z,0.40
2022-12-29T19:26:30.941Z,0.60
2022-12-29T19:29:00.516Z,0.70
2022-12-29T19:31:28.495Z,0.80
2022-12-29T19:33:56.255Z,0.90
2022-12-29T19:36:24.053Z,0.80
2022-12-29T19:38:51.886Z,0.90
2022-12-29T19:41:19.583Z,0.70
2022-12-29T19:43:47.218Z,0.60
2022-12-29T19:46:17.801Z,0.70
2022-12-29T19:48:45.821Z,0.80
2022-12-29T19:51:19.143Z,0.80
2022-12-29T19:53:47.367Z,0.80
2022-12-29T19:56:17.512Z,0.80
2022-12-29T19:58:47.471Z,0.90
2022-12-29T20:01:22.650Z,0.90
2022-12-29T20:03:51.349Z,0.70
2022-12-29T20:06:19.985Z,0.70
2022-12-29T20:08:48.141Z,0.80
2022-12-29T20:11:18.028Z,0.70
2022-12-29T20:13:47.216Z,0.50
2022-12-29T20:16:17.628Z,0.40
2022-12-29T20:18:46.160Z,0.50
2022-12-29T20:21:20.756Z,0.60
2022-12-29T20:23:48.998Z,0.70
2022-12-29T20:26:19.673Z,0.80
2022-12-29T20:28:48.671Z,0.80
2022-12-29T20:31:20.899Z,0.70
2022-12-29T20:33:48.663Z,0.40
2022-12-29T20:36:22.829Z,0.70
2022-12-29T20:38:51.844Z,0.80
2022-12-29T20:41:20.601Z,0.70
2022-12-29T20:43:48.795Z,0.80
2022-12-29T20:46:20.743Z,0.90
2022-12-29T20:48:49.755Z,0.80
2022-12-29T20:51:18.695Z,1.00
2022-12-29T20:53:46.593Z,0.80
2022-12-29T20:56:20.681Z,0.90
2022-12-29T21:01:37.276Z,0.90
2022-12-29T21:04:05.695Z,0.70
2022-12-29T21:06:33.936Z,0.70
2022-12-29T21:09:01.555Z,0.80
2022-12-29T21:11:29.345Z,0.80
2022-12-29T21:14:00.836Z,0.90
2022-12-29T21:16:29.573Z,0.90
2022-12-29T21:18:57.294Z,1.00
2022-12-29T21:21:26.108Z,0.90
2022-12-29T21:23:54.870Z,1.00
2022-12-29T21:26:24.029Z,0.80
2022-12-29T21:28:52.762Z,0.80
2022-12-29T21:31:27.204Z,0.90
2022-12-29T21:33:55.946Z,0.90
2022-12-29T21:36:24.413Z,1.00
2022-12-29T21:38:52.467Z,0.90
2022-12-29T21:41:21.317Z,0.80
2022-12-29T21:44:09.479Z,0.90
2022-12-29T21:46:39.058Z,0.90
2022-12-29T21:49:07.893Z,0.90
2022-12-29T21:51:51.357Z,1.00
2022-12-29T21:54:48.212Z,1.00
2022-12-29T21:57:37.840Z,1.00
2022-12-29T22:00:26.297Z,1.10
2022-12-29T22:03:20.119Z,1.10
2022-12-29T22:06:10.056Z,1.10
2022-12-29T22:08:57.285Z,1.10
2022-12-29T22:11:43.969Z,1.20
2022-12-29T22:14:11.548Z,1.30
2022-12-29T22:16:39.193Z,1.40
2022-12-29T22:19:08.946Z,1.30
2022-12-29T22:21:36.588Z,1.30
2022-12-29T22:24:05.008Z,1.30
2022-12-29T22:26:32.508Z,1.30
2022-12-29T22:29:00.263Z,1.30
2022-12-29T22:31:30.167Z,1.40
2022-12-29T22:34:01.175Z,1.40
2022-12-29T22:36:29.480Z,1.40
2022-12-29T22:38:57.225Z,1.50
2022-12-29T22:41:25.379Z,1.50
2022-12-29T22:43:53.044Z,1.70
2022-12-29T22:46:20.574Z,1.70
2022-12-29T22:48:48.261Z,1.70
2022-12-29T22:51:15.844Z,1.60
2022-12-29T22:53:45.481Z,1.60
2022-12-29T22:56:13.927Z,1.60
2022-12-29T22:58:47.463Z,1.60
2022-12-29T23:01:17.973Z,1.40
2022-12-29T23:03:45.800Z,1.40
2022-12-29T23:06:16.242Z,1.60
2022-12-29T23:08:44.318Z,1.70
2022-12-29T23:11:13.462Z,1.60
2022-12-29T23:13:42.202Z,1.60
2022-12-29T23:16:10.023Z,1.40
2022-12-29T23:18:38.095Z,1.40
2022-12-29T23:21:06.165Z,1.40
2022-12-29T23:23:52.995Z,1.50
2022-12-29T23:26:22.345Z,1.50
2022-12-29T23:28:53.525Z,1.60
2022-12-29T23:31:26.285Z,1.60
2022-12-29T23:33:55.563Z,1.60
2022-12-29T23:36:23.672Z,1.80
2022-12-29T23:38:51.465Z,1.80
2022-12-29T23:41:19.310Z,1.70
2022-12-29T23:43:47.087Z,1.60
2022-12-29T23:46:17.910Z,1.60
2022-12-29T23:48:45.826Z,1.60
2022-12-29T23:51:14.045Z,1.60
2022-12-29T23:53:43.380Z,1.70
2022-12-29T23:56:20.115Z,1.70
2022-12-29T23:58:48.094Z,1.60
